sensor_id;sensor_type;location;lat;lon;timestamp;temperature;humidity
67354;SHT30;54238;52.278;21.056;2022-08-25T00:02:07;22.86;71.33
67354;SHT30;54238;52.278;21.056;2022-08-25T00:04:36;22.88;71.50
67354;SHT30;54238;52.278;21.056;2022-08-25T00:07:05;22.90;71.52
67354;SHT30;54238;52.278;21.056;2022-08-25T00:09:39;22.89;71.40
67354;SHT30;54238;52.278;21.056;2022-08-25T00:12:06;22.91;71.43
67354;SHT30;54238;52.278;21.056;2022-08-25T00:14:36;22.89;71.42
67354;SHT30;54238;52.278;21.056;2022-08-25T00:17:04;22.92;71.45
67354;SHT30;54238;52.278;21.056;2022-08-25T00:19:34;22.94;71.45
67354;SHT30;54238;52.278;21.056;2022-08-25T00:22:05;22.96;71.46
67354;SHT30;54238;52.278;21.056;2022-08-25T00:24:34;23.01;71.42
67354;SHT30;54238;52.278;21.056;2022-08-25T00:27:06;23.01;71.54
67354;SHT30;54238;52.278;21.056;2022-08-25T00:29:38;23.02;71.56
67354;SHT30;54238;52.278;21.056;2022-08-25T00:32:08;23.02;71.61
67354;SHT30;54238;52.278;21.056;2022-08-25T00:34:39;23.04;71.66
67354;SHT30;54238;52.278;21.056;2022-08-25T00:37:07;23.05;71.71
67354;SHT30;54238;52.278;21.056;2022-08-25T00:39:37;23.06;71.68
67354;SHT30;54238;52.278;21.056;2022-08-25T00:42:10;23.09;71.62
67354;SHT30;54238;52.278;21.056;2022-08-25T00:44:41;23.10;71.74
67354;SHT30;54238;52.278;21.056;2022-08-25T00:47:09;23.10;72.00
67354;SHT30;54238;52.278;21.056;2022-08-25T00:49:39;23.10;71.87
67354;SHT30;54238;52.278;21.056;2022-08-25T00:52:22;23.13;71.81
67354;SHT30;54238;52.278;21.056;2022-08-25T01:00:26;23.20;71.89
67354;SHT30;54238;52.278;21.056;2022-08-25T01:02:58;23.20;71.89
67354;SHT30;54238;52.278;21.056;2022-08-25T01:05:28;23.21;71.90
67354;SHT30;54238;52.278;21.056;2022-08-25T01:07:57;23.22;71.95
67354;SHT30;54238;52.278;21.056;2022-08-25T01:10:29;23.22;71.90
67354;SHT30;54238;52.278;21.056;2022-08-25T01:13:07;23.24;71.89
67354;SHT30;54238;52.278;21.056;2022-08-25T01:15:45;23.22;72.03
67354;SHT30;54238;52.278;21.056;2022-08-25T01:18:14;23.21;72.06
67354;SHT30;54238;52.278;21.056;2022-08-25T01:20:52;23.23;72.11
67354;SHT30;54238;52.278;21.056;2022-08-25T01:23:24;23.23;72.15
67354;SHT30;54238;52.278;21.056;2022-08-25T01:26:03;23.24;72.19
67354;SHT30;54238;52.278;21.056;2022-08-25T01:28:36;23.23;72.32
67354;SHT30;54238;52.278;21.056;2022-08-25T01:31:24;23.23;72.42
67354;SHT30;54238;52.278;21.056;2022-08-25T01:33:56;23.25;72.48
67354;SHT30;54238;52.278;21.056;2022-08-25T01:36:26;23.25;72.63
67354;SHT30;54238;52.278;21.056;2022-08-25T01:38:56;23.26;72.71
67354;SHT30;54238;52.278;21.056;2022-08-25T01:44:29;23.28;72.99
67354;SHT30;54238;52.278;21.056;2022-08-25T01:47:04;23.29;73.12
67354;SHT30;54238;52.278;21.056;2022-08-25T01:49:38;23.32;73.19
67354;SHT30;54238;52.278;21.056;2022-08-25T01:52:45;23.33;73.28
67354;SHT30;54238;52.278;21.056;2022-08-25T01:55:18;23.33;73.40
67354;SHT30;54238;52.278;21.056;2022-08-25T01:57:48;23.36;73.47
67354;SHT30;54238;52.278;21.056;2022-08-25T02:00:16;23.37;73.52
67354;SHT30;54238;52.278;21.056;2022-08-25T02:02:45;23.39;73.66
67354;SHT30;54238;52.278;21.056;2022-08-25T02:05:15;23.41;73.76
67354;SHT30;54238;52.278;21.056;2022-08-25T02:07:44;23.41;73.81
67354;SHT30;54238;52.278;21.056;2022-08-25T02:10:17;23.41;73.94
67354;SHT30;54238;52.278;21.056;2022-08-25T02:12:49;23.42;73.98
67354;SHT30;54238;52.278;21.056;2022-08-25T02:15:19;23.43;74.06
67354;SHT30;54238;52.278;21.056;2022-08-25T02:17:51;23.44;74.07
67354;SHT30;54238;52.278;21.056;2022-08-25T02:20:23;23.45;74.04
67354;SHT30;54238;52.278;21.056;2022-08-25T02:22:52;23.45;74.10
67354;SHT30;54238;52.278;21.056;2022-08-25T02:25:24;23.46;74.09
67354;SHT30;54238;52.278;21.056;2022-08-25T02:27:54;23.47;74.09
67354;SHT30;54238;52.278;21.056;2022-08-25T02:30:26;23.48;74.08
67354;SHT30;54238;52.278;21.056;2022-08-25T02:32:58;23.49;74.04
67354;SHT30;54238;52.278;21.056;2022-08-25T02:35:32;23.50;73.99
67354;SHT30;54238;52.278;21.056;2022-08-25T02:38:03;23.50;74.00
67354;SHT30;54238;52.278;21.056;2022-08-25T02:40:34;23.50;73.99
67354;SHT30;54238;52.278;21.056;2022-08-25T02:43:04;23.50;74.01
67354;SHT30;54238;52.278;21.056;2022-08-25T02:45:35;23.47;74.08
67354;SHT30;54238;52.278;21.056;2022-08-25T02:48:05;23.46;74.06
67354;SHT30;54238;52.278;21.056;2022-08-25T02:50:34;23.45;74.12
67354;SHT30;54238;52.278;21.056;2022-08-25T02:53:01;23.45;74.14
67354;SHT30;54238;52.278;21.056;2022-08-25T02:55:28;23.46;74.11
67354;SHT30;54238;52.278;21.056;2022-08-25T02:57:57;23.47;74.12
67354;SHT30;54238;52.278;21.056;2022-08-25T03:00:29;23.45;74.17
67354;SHT30;54238;52.278;21.056;2022-08-25T03:03:01;23.45;74.18
67354;SHT30;54238;52.278;21.056;2022-08-25T03:05:32;23.45;74.23
67354;SHT30;54238;52.278;21.056;2022-08-25T03:08:02;23.40;74.29
67354;SHT30;54238;52.278;21.056;2022-08-25T03:10:39;23.38;74.37
67354;SHT30;54238;52.278;21.056;2022-08-25T03:13:06;23.37;74.45
67354;SHT30;54238;52.278;21.056;2022-08-25T03:15:40;23.38;74.54
67354;SHT30;54238;52.278;21.056;2022-08-25T03:18:10;23.39;74.52
67354;SHT30;54238;52.278;21.056;2022-08-25T03:20:38;23.42;74.39
67354;SHT30;54238;52.278;21.056;2022-08-25T03:23:07;23.40;74.41
67354;SHT30;54238;52.278;21.056;2022-08-25T03:25:34;23.38;74.36
67354;SHT30;54238;52.278;21.056;2022-08-25T03:28:25;23.34;74.54
67354;SHT30;54238;52.278;21.056;2022-08-25T03:30:52;23.34;74.53
67354;SHT30;54238;52.278;21.056;2022-08-25T03:33:22;23.35;74.57
67354;SHT30;54238;52.278;21.056;2022-08-25T03:35:54;23.38;74.53
67354;SHT30;54238;52.278;21.056;2022-08-25T03:38:22;23.36;74.53
67354;SHT30;54238;52.278;21.056;2022-08-25T03:40:53;23.33;74.57
67354;SHT30;54238;52.278;21.056;2022-08-25T03:43:23;23.30;74.63
67354;SHT30;54238;52.278;21.056;2022-08-25T03:46:00;23.29;74.76
67354;SHT30;54238;52.278;21.056;2022-08-25T03:48:29;23.25;74.85
67354;SHT30;54238;52.278;21.056;2022-08-25T03:50:58;23.23;74.88
67354;SHT30;54238;52.278;21.056;2022-08-25T03:53:28;23.20;74.88
67354;SHT30;54238;52.278;21.056;2022-08-25T03:56:03;23.19;74.90
67354;SHT30;54238;52.278;21.056;2022-08-25T03:58:32;23.18;74.89
67354;SHT30;54238;52.278;21.056;2022-08-25T04:01:01;23.18;74.87
67354;SHT30;54238;52.278;21.056;2022-08-25T04:03:28;23.23;74.86
67354;SHT30;54238;52.278;21.056;2022-08-25T04:06:01;23.26;74.80
67354;SHT30;54238;52.278;21.056;2022-08-25T04:08:33;23.28;74.73
67354;SHT30;54238;52.278;21.056;2022-08-25T04:11:15;23.28;74.75
67354;SHT30;54238;52.278;21.056;2022-08-25T04:13:51;23.29;74.76
67354;SHT30;54238;52.278;21.056;2022-08-25T04:16:25;23.28;74.71
67354;SHT30;54238;52.278;21.056;2022-08-25T04:19:01;23.30;74.76
67354;SHT30;54238;52.278;21.056;2022-08-25T04:21:35;23.32;74.76
67354;SHT30;54238;52.278;21.056;2022-08-25T04:24:09;23.33;74.70
67354;SHT30;54238;52.278;21.056;2022-08-25T04:26:42;23.34;74.63
67354;SHT30;54238;52.278;21.056;2022-08-25T04:29:15;23.36;74.60
67354;SHT30;54238;52.278;21.056;2022-08-25T04:31:45;23.40;74.51
67354;SHT30;54238;52.278;21.056;2022-08-25T04:34:17;23.44;74.42
67354;SHT30;54238;52.278;21.056;2022-08-25T04:36:52;23.45;74.42
67354;SHT30;54238;52.278;21.056;2022-08-25T04:39:22;23.46;74.36
67354;SHT30;54238;52.278;21.056;2022-08-25T04:41:54;23.45;74.37
67354;SHT30;54238;52.278;21.056;2022-08-25T04:44:29;23.45;74.31
67354;SHT30;54238;52.278;21.056;2022-08-25T04:46:57;23.50;74.38
67354;SHT30;54238;52.278;21.056;2022-08-25T04:49:30;23.51;74.32
67354;SHT30;54238;52.278;21.056;2022-08-25T04:51:59;23.53;74.35
67354;SHT30;54238;52.278;21.056;2022-08-25T04:54:28;23.55;74.47
67354;SHT30;54238;52.278;21.056;2022-08-25T04:56:55;23.56;74.42
67354;SHT30;54238;52.278;21.056;2022-08-25T04:59:25;23.62;74.29
67354;SHT30;54238;52.278;21.056;2022-08-25T05:01:55;23.66;74.13
67354;SHT30;54238;52.278;21.056;2022-08-25T05:04:30;23.70;74.03
67354;SHT30;54238;52.278;21.056;2022-08-25T05:07:01;23.72;74.00
67354;SHT30;54238;52.278;21.056;2022-08-25T05:09:32;23.76;73.95
67354;SHT30;54238;52.278;21.056;2022-08-25T05:12:04;23.79;73.78
67354;SHT30;54238;52.278;21.056;2022-08-25T05:14:31;23.83;73.82
67354;SHT30;54238;52.278;21.056;2022-08-25T05:16:59;23.89;73.64
67354;SHT30;54238;52.278;21.056;2022-08-25T05:19:32;23.97;73.46
67354;SHT30;54238;52.278;21.056;2022-08-25T05:22:01;24.01;73.18
67354;SHT30;54238;52.278;21.056;2022-08-25T05:24:33;24.04;73.06
67354;SHT30;54238;52.278;21.056;2022-08-25T05:27:05;24.05;72.91
67354;SHT30;54238;52.278;21.056;2022-08-25T05:29:34;24.06;72.95
67354;SHT30;54238;52.278;21.056;2022-08-25T05:32:05;24.09;72.92
67354;SHT30;54238;52.278;21.056;2022-08-25T05:34:36;24.16;72.63
67354;SHT30;54238;52.278;21.056;2022-08-25T05:37:07;24.21;72.57
67354;SHT30;54238;52.278;21.056;2022-08-25T05:39:37;24.23;72.36
67354;SHT30;54238;52.278;21.056;2022-08-25T05:42:06;24.25;72.18
67354;SHT30;54238;52.278;21.056;2022-08-25T05:44:34;24.28;71.89
67354;SHT30;54238;52.278;21.056;2022-08-25T05:47:07;24.30;71.85
67354;SHT30;54238;52.278;21.056;2022-08-25T05:49:37;24.32;71.75
67354;SHT30;54238;52.278;21.056;2022-08-25T05:52:09;24.34;71.75
67354;SHT30;54238;52.278;21.056;2022-08-25T05:54:35;24.40;71.45
67354;SHT30;54238;52.278;21.056;2022-08-25T05:57:09;24.48;71.32
67354;SHT30;54238;52.278;21.056;2022-08-25T05:59:36;24.55;71.16
67354;SHT30;54238;52.278;21.056;2022-08-25T06:02:05;24.60;70.96
67354;SHT30;54238;52.278;21.056;2022-08-25T06:04:51;24.68;70.79
67354;SHT30;54238;52.278;21.056;2022-08-25T06:07:21;24.73;70.46
67354;SHT30;54238;52.278;21.056;2022-08-25T06:09:50;24.80;70.21
67354;SHT30;54238;52.278;21.056;2022-08-25T06:12:18;24.84;70.12
67354;SHT30;54238;52.278;21.056;2022-08-25T06:14:47;24.88;69.87
67354;SHT30;54238;52.278;21.056;2022-08-25T06:17:17;24.94;69.62
67354;SHT30;54238;52.278;21.056;2022-08-25T06:19:44;25.00;69.43
67354;SHT30;54238;52.278;21.056;2022-08-25T06:22:11;25.09;69.34
67354;SHT30;54238;52.278;21.056;2022-08-25T06:24:38;25.17;69.12
67354;SHT30;54238;52.278;21.056;2022-08-25T06:27:08;25.27;68.65
67354;SHT30;54238;52.278;21.056;2022-08-25T06:29:38;25.39;68.23
67354;SHT30;54238;52.278;21.056;2022-08-25T06:32:07;25.52;67.68
67354;SHT30;54238;52.278;21.056;2022-08-25T06:34:39;25.65;67.39
67354;SHT30;54238;52.278;21.056;2022-08-25T06:37:09;25.76;66.99
67354;SHT30;54238;52.278;21.056;2022-08-25T06:39:43;25.92;66.69
67354;SHT30;54238;52.278;21.056;2022-08-25T06:42:12;26.05;66.23
67354;SHT30;54238;52.278;21.056;2022-08-25T06:44:40;26.17;65.90
67354;SHT30;54238;52.278;21.056;2022-08-25T06:47:09;26.32;65.61
67354;SHT30;54238;52.278;21.056;2022-08-25T06:49:40;26.46;65.27
67354;SHT30;54238;52.278;21.056;2022-08-25T06:52:10;26.59;64.49
67354;SHT30;54238;52.278;21.056;2022-08-25T06:54:46;26.73;63.99
67354;SHT30;54238;52.278;21.056;2022-08-25T06:57:18;26.87;63.81
67354;SHT30;54238;52.278;21.056;2022-08-25T06:59:50;26.98;63.73
67354;SHT30;54238;52.278;21.056;2022-08-25T07:02:21;27.10;63.12
67354;SHT30;54238;52.278;21.056;2022-08-25T07:04:48;27.18;62.51
67354;SHT30;54238;52.278;21.056;2022-08-25T07:07:19;27.31;62.33
67354;SHT30;54238;52.278;21.056;2022-08-25T07:09:47;27.43;62.04
67354;SHT30;54238;52.278;21.056;2022-08-25T07:12:20;27.57;61.26
67354;SHT30;54238;52.278;21.056;2022-08-25T07:14:50;27.72;60.88
67354;SHT30;54238;52.278;21.056;2022-08-25T07:17:20;27.92;59.99
67354;SHT30;54238;52.278;21.056;2022-08-25T07:19:52;28.07;60.04
67354;SHT30;54238;52.278;21.056;2022-08-25T07:22:21;28.24;58.86
67354;SHT30;54238;52.278;21.056;2022-08-25T07:24:48;28.39;57.40
67354;SHT30;54238;52.278;21.056;2022-08-25T07:27:18;28.58;57.65
67354;SHT30;54238;52.278;21.056;2022-08-25T07:29:48;28.82;57.38
67354;SHT30;54238;52.278;21.056;2022-08-25T07:32:21;29.06;56.11
67354;SHT30;54238;52.278;21.056;2022-08-25T07:34:50;29.17;54.90
67354;SHT30;54238;52.278;21.056;2022-08-25T07:37:39;29.31;55.26
67354;SHT30;54238;52.278;21.056;2022-08-25T07:40:11;29.46;55.28
67354;SHT30;54238;52.278;21.056;2022-08-25T07:42:50;29.60;55.21
67354;SHT30;54238;52.278;21.056;2022-08-25T07:45:27;29.70;55.08
67354;SHT30;54238;52.278;21.056;2022-08-25T07:48:04;29.85;54.43
67354;SHT30;54238;52.278;21.056;2022-08-25T07:50:42;30.05;53.24
67354;SHT30;54238;52.278;21.056;2022-08-25T07:53:14;30.16;52.56
67354;SHT30;54238;52.278;21.056;2022-08-25T07:55:47;30.20;52.99
67354;SHT30;54238;52.278;21.056;2022-08-25T07:58:14;30.24;53.01
67354;SHT30;54238;52.278;21.056;2022-08-25T08:00:42;30.35;53.17
67354;SHT30;54238;52.278;21.056;2022-08-25T08:03:14;30.47;53.23
67354;SHT30;54238;52.278;21.056;2022-08-25T08:05:47;30.60;52.68
67354;SHT30;54238;52.278;21.056;2022-08-25T08:08:21;30.65;51.42
67354;SHT30;54238;52.278;21.056;2022-08-25T08:10:51;30.66;50.76
67354;SHT30;54238;52.278;21.056;2022-08-25T08:13:18;30.71;51.33
67354;SHT30;54238;52.278;21.056;2022-08-25T08:15:51;30.83;51.14
67354;SHT30;54238;52.278;21.056;2022-08-25T08:18:23;30.96;50.74
67354;SHT30;54238;52.278;21.056;2022-08-25T08:20:53;31.07;50.44
67354;SHT30;54238;52.278;21.056;2022-08-25T08:23:23;31.15;50.35
67354;SHT30;54238;52.278;21.056;2022-08-25T08:25:54;31.20;49.29
67354;SHT30;54238;52.278;21.056;2022-08-25T08:28:23;31.20;49.94
67354;SHT30;54238;52.278;21.056;2022-08-25T08:30:55;31.28;49.71
67354;SHT30;54238;52.278;21.056;2022-08-25T08:33:22;31.40;48.90
67354;SHT30;54238;52.278;21.056;2022-08-25T08:35:57;31.52;47.74
67354;SHT30;54238;52.278;21.056;2022-08-25T08:38:37;31.65;47.39
67354;SHT30;54238;52.278;21.056;2022-08-25T08:50:28;32.08;46.66
67354;SHT30;54238;52.278;21.056;2022-08-25T08:53:39;32.22;46.55
67354;SHT30;54238;52.278;21.056;2022-08-25T08:56:41;32.36;45.79
67354;SHT30;54238;52.278;21.056;2022-08-25T08:59:21;32.52;45.90
67354;SHT30;54238;52.278;21.056;2022-08-25T09:01:57;32.71;45.65
67354;SHT30;54238;52.278;21.056;2022-08-25T09:07:21;33.15;43.78
67354;SHT30;54238;52.278;21.056;2022-08-25T09:09:57;33.33;42.92
67354;SHT30;54238;52.278;21.056;2022-08-25T09:12:34;33.47;42.83
67354;SHT30;54238;52.278;21.056;2022-08-25T09:15:43;33.53;43.05
67354;SHT30;54238;52.278;21.056;2022-08-25T09:18:50;33.66;43.70
67354;SHT30;54238;52.278;21.056;2022-08-25T09:24:12;34.25;42.38
67354;SHT30;54238;52.278;21.056;2022-08-25T09:27:13;34.57;41.16
67354;SHT30;54238;52.278;21.056;2022-08-25T09:35:30;35.32;38.41
67354;SHT30;54238;52.278;21.056;2022-08-25T09:38:03;35.46;38.30
67354;SHT30;54238;52.278;21.056;2022-08-25T09:40:41;35.67;38.47
67354;SHT30;54238;52.278;21.056;2022-08-25T09:48:30;36.37;34.68
67354;SHT30;54238;52.278;21.056;2022-08-25T09:51:19;36.48;34.32
67354;SHT30;54238;52.278;21.056;2022-08-25T09:53:58;36.68;34.07
67354;SHT30;54238;52.278;21.056;2022-08-25T09:56:51;36.92;33.28
67354;SHT30;54238;52.278;21.056;2022-08-25T09:59:28;37.16;32.58
67354;SHT30;54238;52.278;21.056;2022-08-25T10:02:03;37.37;31.25
67354;SHT30;54238;52.278;21.056;2022-08-25T10:04:46;37.65;30.50
67354;SHT30;54238;52.278;21.056;2022-08-25T10:07:25;37.95;30.25
67354;SHT30;54238;52.278;21.056;2022-08-25T10:10:17;38.18;29.78
67354;SHT30;54238;52.278;21.056;2022-08-25T10:12:59;38.35;29.43
67354;SHT30;54238;52.278;21.056;2022-08-25T10:15:34;38.53;27.36
67354;SHT30;54238;52.278;21.056;2022-08-25T10:23:42;39.21;26.24
67354;SHT30;54238;52.278;21.056;2022-08-25T10:26:22;39.30;26.11
67354;SHT30;54238;52.278;21.056;2022-08-25T10:32:15;39.75;25.39
67354;SHT30;54238;52.278;21.056;2022-08-25T10:35:04;39.97;24.98
67354;SHT30;54238;52.278;21.056;2022-08-25T10:40:55;40.53;24.54
67354;SHT30;54238;52.278;21.056;2022-08-25T10:55:59;41.03;21.25
67354;SHT30;54238;52.278;21.056;2022-08-25T11:01:52;41.10;22.17
67354;SHT30;54238;52.278;21.056;2022-08-25T11:05:02;41.19;21.24
67354;SHT30;54238;52.278;21.056;2022-08-25T11:08:04;41.26;20.96
67354;SHT30;54238;52.278;21.056;2022-08-25T11:16:14;41.96;20.50
67354;SHT30;54238;52.278;21.056;2022-08-25T11:27:58;42.65;20.05
67354;SHT30;54238;52.278;21.056;2022-08-25T11:30:35;42.83;19.32
67354;SHT30;54238;52.278;21.056;2022-08-25T11:33:13;42.94;18.03
67354;SHT30;54238;52.278;21.056;2022-08-25T11:35:49;42.96;17.74
67354;SHT30;54238;52.278;21.056;2022-08-25T11:44:12;42.79;18.23
67354;SHT30;54238;52.278;21.056;2022-08-25T11:52:43;43.25;18.74
67354;SHT30;54238;52.278;21.056;2022-08-25T11:55:18;43.27;18.66
67354;SHT30;54238;52.278;21.056;2022-08-25T12:00:59;43.39;18.97
67354;SHT30;54238;52.278;21.056;2022-08-25T12:06:21;43.66;18.38
67354;SHT30;54238;52.278;21.056;2022-08-25T12:14:33;43.60;17.81
67354;SHT30;54238;52.278;21.056;2022-08-25T12:17:18;43.78;17.88
67354;SHT30;54238;52.278;21.056;2022-08-25T12:19:56;43.99;16.62
67354;SHT30;54238;52.278;21.056;2022-08-25T12:24:59;44.05;17.08
67354;SHT30;54238;52.278;21.056;2022-08-25T12:30:27;44.17;16.55
67354;SHT30;54238;52.278;21.056;2022-08-25T12:36:08;44.41;17.21
67354;SHT30;54238;52.278;21.056;2022-08-25T12:38:55;44.53;16.73
67354;SHT30;54238;52.278;21.056;2022-08-25T12:41:56;44.72;17.23
67354;SHT30;54238;52.278;21.056;2022-08-25T12:44:33;44.86;17.13
67354;SHT30;54238;52.278;21.056;2022-08-25T12:47:24;44.84;17.17
67354;SHT30;54238;52.278;21.056;2022-08-25T12:51:03;44.99;16.97
67354;SHT30;54238;52.278;21.056;2022-08-25T12:53:31;45.16;17.02
67354;SHT30;54238;52.278;21.056;2022-08-25T12:59:47;45.06;16.56
67354;SHT30;54238;52.278;21.056;2022-08-25T13:08:47;45.46;16.65
67354;SHT30;54238;52.278;21.056;2022-08-25T13:11:45;45.60;16.70
67354;SHT30;54238;52.278;21.056;2022-08-25T13:17:08;45.70;16.84
67354;SHT30;54238;52.278;21.056;2022-08-25T13:19:38;45.73;16.76
67354;SHT30;54238;52.278;21.056;2022-08-25T13:22:14;45.73;16.63
67354;SHT30;54238;52.278;21.056;2022-08-25T13:24:46;45.74;16.77
67354;SHT30;54238;52.278;21.056;2022-08-25T13:27:21;45.72;16.75
67354;SHT30;54238;52.278;21.056;2022-08-25T13:29:57;45.81;16.67
67354;SHT30;54238;52.278;21.056;2022-08-25T13:32:28;45.94;16.22
67354;SHT30;54238;52.278;21.056;2022-08-25T13:35:15;45.95;15.81
67354;SHT30;54238;52.278;21.056;2022-08-25T13:38:15;45.94;15.57
67354;SHT30;54238;52.278;21.056;2022-08-25T13:40:46;45.78;15.60
67354;SHT30;54238;52.278;21.056;2022-08-25T13:43:13;45.70;16.00
67354;SHT30;54238;52.278;21.056;2022-08-25T13:45:43;45.70;15.64
67354;SHT30;54238;52.278;21.056;2022-08-25T13:48:30;45.74;16.41
67354;SHT30;54238;52.278;21.056;2022-08-25T13:51:19;45.70;15.45
67354;SHT30;54238;52.278;21.056;2022-08-25T13:53:57;45.50;15.24
67354;SHT30;54238;52.278;21.056;2022-08-25T13:56:33;45.47;15.13
67354;SHT30;54238;52.278;21.056;2022-08-25T13:59:19;45.55;15.49
67354;SHT30;54238;52.278;21.056;2022-08-25T14:01:55;45.58;15.89
67354;SHT30;54238;52.278;21.056;2022-08-25T14:17:45;45.57;15.42
67354;SHT30;54238;52.278;21.056;2022-08-25T14:20:30;45.53;15.51
67354;SHT30;54238;52.278;21.056;2022-08-25T14:23:11;45.48;15.66
67354;SHT30;54238;52.278;21.056;2022-08-25T14:25:45;45.37;15.90
67354;SHT30;54238;52.278;21.056;2022-08-25T14:28:16;45.25;16.09
67354;SHT30;54238;52.278;21.056;2022-08-25T14:30:52;45.19;16.15
67354;SHT30;54238;52.278;21.056;2022-08-25T14:33:30;45.24;16.36
67354;SHT30;54238;52.278;21.056;2022-08-25T14:36:04;45.18;16.36
67354;SHT30;54238;52.278;21.056;2022-08-25T14:38:34;45.02;16.25
67354;SHT30;54238;52.278;21.056;2022-08-25T14:41:11;44.91;16.65
67354;SHT30;54238;52.278;21.056;2022-08-25T14:43:41;44.85;16.35
67354;SHT30;54238;52.278;21.056;2022-08-25T14:46:22;44.81;16.43
67354;SHT30;54238;52.278;21.056;2022-08-25T14:49:00;44.62;16.44
67354;SHT30;54238;52.278;21.056;2022-08-25T14:51:35;44.51;16.83
67354;SHT30;54238;52.278;21.056;2022-08-25T14:54:10;44.49;16.97
67354;SHT30;54238;52.278;21.056;2022-08-25T14:56:46;44.57;17.25
67354;SHT30;54238;52.278;21.056;2022-08-25T14:59:16;44.45;16.98
67354;SHT30;54238;52.278;21.056;2022-08-25T15:01:46;44.37;16.89
67354;SHT30;54238;52.278;21.056;2022-08-25T15:04:16;44.29;16.84
67354;SHT30;54238;52.278;21.056;2022-08-25T15:06:55;44.17;16.84
67354;SHT30;54238;52.278;21.056;2022-08-25T15:10:00;44.00;17.10
67354;SHT30;54238;52.278;21.056;2022-08-25T15:12:33;43.86;16.87
67354;SHT30;54238;52.278;21.056;2022-08-25T15:15:00;43.61;16.83
67354;SHT30;54238;52.278;21.056;2022-08-25T15:17:30;43.45;17.10
67354;SHT30;54238;52.278;21.056;2022-08-25T15:19:57;43.37;17.00
67354;SHT30;54238;52.278;21.056;2022-08-25T15:22:27;43.22;16.89
67354;SHT30;54238;52.278;21.056;2022-08-25T15:24:54;43.06;17.30
67354;SHT30;54238;52.278;21.056;2022-08-25T15:27:23;42.96;17.40
67354;SHT30;54238;52.278;21.056;2022-08-25T15:29:53;42.86;17.60
67354;SHT30;54238;52.278;21.056;2022-08-25T15:32:25;42.64;17.45
67354;SHT30;54238;52.278;21.056;2022-08-25T15:34:58;42.38;17.36
67354;SHT30;54238;52.278;21.056;2022-08-25T15:37:29;42.10;17.50
67354;SHT30;54238;52.278;21.056;2022-08-25T15:40:01;41.86;17.62
67354;SHT30;54238;52.278;21.056;2022-08-25T15:42:33;41.68;17.82
67354;SHT30;54238;52.278;21.056;2022-08-25T15:45:05;41.53;17.96
67354;SHT30;54238;52.278;21.056;2022-08-25T15:47:36;41.35;18.20
67354;SHT30;54238;52.278;21.056;2022-08-25T15:50:10;41.19;18.68
67354;SHT30;54238;52.278;21.056;2022-08-25T15:52:47;41.02;18.90
67354;SHT30;54238;52.278;21.056;2022-08-25T15:55:17;40.87;18.78
67354;SHT30;54238;52.278;21.056;2022-08-25T15:57:44;40.63;18.81
67354;SHT30;54238;52.278;21.056;2022-08-25T16:00:11;40.46;19.12
67354;SHT30;54238;52.278;21.056;2022-08-25T16:02:43;40.40;19.32
67354;SHT30;54238;52.278;21.056;2022-08-25T16:05:12;40.30;19.19
67354;SHT30;54238;52.278;21.056;2022-08-25T16:07:40;40.10;19.03
67354;SHT30;54238;52.278;21.056;2022-08-25T16:10:11;39.87;19.26
67354;SHT30;54238;52.278;21.056;2022-08-25T16:12:41;39.63;19.43
67354;SHT30;54238;52.278;21.056;2022-08-25T16:15:13;39.44;19.33
67354;SHT30;54238;52.278;21.056;2022-08-25T16:17:40;39.32;19.29
67354;SHT30;54238;52.278;21.056;2022-08-25T16:20:09;39.15;19.41
67354;SHT30;54238;52.278;21.056;2022-08-25T16:22:39;38.98;19.54
67354;SHT30;54238;52.278;21.056;2022-08-25T16:25:12;38.76;19.73
67354;SHT30;54238;52.278;21.056;2022-08-25T16:27:40;38.57;19.97
67354;SHT30;54238;52.278;21.056;2022-08-25T16:30:12;38.31;20.73
67354;SHT30;54238;52.278;21.056;2022-08-25T16:32:43;38.08;21.04
67354;SHT30;54238;52.278;21.056;2022-08-25T16:35:13;37.88;21.25
67354;SHT30;54238;52.278;21.056;2022-08-25T16:37:43;37.73;21.25
67354;SHT30;54238;52.278;21.056;2022-08-25T16:40:12;37.58;21.47
67354;SHT30;54238;52.278;21.056;2022-08-25T16:42:40;37.40;21.53
67354;SHT30;54238;52.278;21.056;2022-08-25T16:45:08;37.17;21.65
67354;SHT30;54238;52.278;21.056;2022-08-25T16:47:39;36.93;21.79
67354;SHT30;54238;52.278;21.056;2022-08-25T16:50:09;36.68;22.00
67354;SHT30;54238;52.278;21.056;2022-08-25T16:52:40;36.39;22.35
67354;SHT30;54238;52.278;21.056;2022-08-25T16:55:27;36.04;22.71
67354;SHT30;54238;52.278;21.056;2022-08-25T16:57:58;35.68;23.24
67354;SHT30;54238;52.278;21.056;2022-08-25T17:00:29;35.29;23.86
67354;SHT30;54238;52.278;21.056;2022-08-25T17:03:00;34.87;24.11
67354;SHT30;54238;52.278;21.056;2022-08-25T17:05:34;34.49;24.45
67354;SHT30;54238;52.278;21.056;2022-08-25T17:08:06;34.14;24.91
67354;SHT30;54238;52.278;21.056;2022-08-25T17:10:51;33.80;25.47
67354;SHT30;54238;52.278;21.056;2022-08-25T17:13:23;33.51;25.72
67354;SHT30;54238;52.278;21.056;2022-08-25T17:15:50;33.23;26.07
67354;SHT30;54238;52.278;21.056;2022-08-25T17:18:19;32.98;26.63
67354;SHT30;54238;52.278;21.056;2022-08-25T17:20:46;32.71;26.97
67354;SHT30;54238;52.278;21.056;2022-08-25T17:23:24;32.48;27.42
67354;SHT30;54238;52.278;21.056;2022-08-25T17:25:53;32.23;28.02
67354;SHT30;54238;52.278;21.056;2022-08-25T17:28:28;31.99;28.07
67354;SHT30;54238;52.278;21.056;2022-08-25T17:30:55;31.76;28.39
67354;SHT30;54238;52.278;21.056;2022-08-25T17:33:25;31.53;28.74
67354;SHT30;54238;52.278;21.056;2022-08-25T17:35:53;31.34;28.72
67354;SHT30;54238;52.278;21.056;2022-08-25T17:38:26;31.13;29.21
67354;SHT30;54238;52.278;21.056;2022-08-25T17:40:57;30.94;29.32
67354;SHT30;54238;52.278;21.056;2022-08-25T17:43:28;30.77;29.69
67354;SHT30;54238;52.278;21.056;2022-08-25T17:45:56;30.61;29.98
67354;SHT30;54238;52.278;21.056;2022-08-25T17:48:26;30.42;30.61
67354;SHT30;54238;52.278;21.056;2022-08-25T17:50:54;30.23;31.08
67354;SHT30;54238;52.278;21.056;2022-08-25T17:53:29;30.06;31.23
67354;SHT30;54238;52.278;21.056;2022-08-25T17:55:57;29.93;31.48
67354;SHT30;54238;52.278;21.056;2022-08-25T17:58:34;29.79;31.52
67354;SHT30;54238;52.278;21.056;2022-08-25T18:01:04;29.67;31.62
67354;SHT30;54238;52.278;21.056;2022-08-25T18:03:44;29.56;31.55
67354;SHT30;54238;52.278;21.056;2022-08-25T18:06:18;29.43;31.91
67354;SHT30;54238;52.278;21.056;2022-08-25T18:08:47;29.31;31.89
67354;SHT30;54238;52.278;21.056;2022-08-25T18:11:20;29.20;31.82